createdAt,value
2019-01-06T00:00:48.465Z,99.53
2019-01-06T00:03:38.937Z,99.74
2019-01-06T00:06:25.660Z,99.66
2019-01-06T00:09:28.920Z,99.81
2019-01-06T00:12:22.011Z,99.65
2019-01-06T00:15:07.046Z,99.21
2019-01-06T00:17:54.002Z,98.95
2019-01-06T00:20:49.635Z,99.07
2019-01-06T00:23:40.510Z,99.32
2019-01-06T00:26:40.720Z,99.27
2019-01-06T00:29:47.089Z,99.31
2019-01-06T00:32:38.059Z,99.61
2019-01-06T00:35:41.934Z,99.93
2019-01-06T00:38:28.542Z,99.97
2019-01-06T00:41:15.078Z,99.92
2019-01-06T00:44:10.278Z,99.97
2019-01-06T00:46:56.994Z,99.98
2019-01-06T00:49:47.837Z,99.95
2019-01-06T00:52:48.047Z,100.00
2019-01-06T00:55:35.942Z,100.00
2019-01-06T00:58:26.559Z,100.00
2019-01-06T01:01:26.879Z,100.00
2019-01-06T01:04:13.568Z,99.90
2019-01-06T01:07:19.646Z,99.95
2019-01-06T01:10:16.192Z,99.78
2019-01-06T01:13:08.025Z,99.82
2019-01-06T01:15:52.045Z,99.92
2019-01-06T01:18:48.621Z,100.00
2019-01-06T01:21:34.175Z,99.99
2019-01-06T01:24:22.005Z,99.83
2019-01-06T01:27:18.035Z,99.72
2019-01-06T01:29:59.425Z,99.69
2019-01-06T01:32:43.985Z,99.68
2019-01-06T01:35:37.349Z,99.53
2019-01-06T01:38:25.166Z,99.55
2019-01-06T01:41:18.645Z,99.51
2019-01-06T01:44:18.632Z,99.23
2019-01-06T01:46:59.109Z,98.93
2019-01-06T01:49:47.029Z,99.10
2019-01-06T01:52:33.362Z,98.86
2019-01-06T01:55:36.104Z,99.03
2019-01-06T01:58:39.162Z,99.14
2019-01-06T02:01:26.915Z,98.91
2019-01-06T02:04:12.742Z,98.64
2019-01-06T02:06:54.755Z,98.66
2019-01-06T02:09:41.077Z,98.65
2019-01-06T02:12:40.812Z,98.76
2019-01-06T02:15:32.302Z,98.30
2019-01-06T02:18:25.080Z,98.53
2019-01-06T02:21:11.372Z,98.98
2019-01-06T02:23:59.264Z,98.98
2019-01-06T02:26:54.165Z,98.78
2019-01-06T02:29:48.090Z,98.74
2019-01-06T02:32:44.915Z,98.72
2019-01-06T02:35:31.187Z,98.68
2019-01-06T02:38:20.258Z,98.87
2019-01-06T02:41:08.105Z,98.97
2019-01-06T02:43:54.641Z,98.90
2019-01-06T02:46:42.785Z,98.74
2019-01-06T02:49:39.951Z,98.78
2019-01-06T02:52:27.635Z,98.84
2019-01-06T02:55:14.220Z,98.45
2019-01-06T02:58:00.598Z,98.19
2019-01-06T03:00:51.027Z,97.74
2019-01-06T03:03:42.331Z,97.72
2019-01-06T03:06:22.476Z,97.49
2019-01-06T03:09:25.817Z,97.10
2019-01-06T03:12:12.193Z,96.94
2019-01-06T03:14:58.578Z,96.97
2019-01-06T03:17:49.115Z,96.41
2019-01-06T03:20:49.008Z,96.91
2019-01-06T03:23:45.714Z,97.27
2019-01-06T03:26:32.085Z,97.38
2019-01-06T03:29:16.903Z,97.30
2019-01-06T03:32:07.908Z,97.20
2019-01-06T03:34:54.158Z,97.18
2019-01-06T03:37:42.072Z,96.67
2019-01-06T03:40:41.912Z,96.91
2019-01-06T03:43:32.700Z,97.07
2019-01-06T03:46:29.380Z,97.42
2019-01-06T03:49:13.101Z,97.83
2019-01-06T03:52:09.904Z,98.13
2019-01-06T03:55:09.949Z,98.33
2019-01-06T03:57:56.400Z,98.60
2019-01-06T04:00:42.678Z,99.10
2019-01-06T04:03:30.733Z,99.38
2019-01-06T04:06:21.199Z,99.59
2019-01-06T04:09:07.489Z,99.61
2019-01-06T04:11:53.840Z,99.62
2019-01-06T04:14:56.880Z,99.62
2019-01-06T04:17:36.156Z,99.79
2019-01-06T04:20:22.870Z,99.60
2019-01-06T04:23:09.123Z,99.62
2019-01-06T04:25:54.105Z,99.45
2019-01-06T04:28:40.299Z,99.60
2019-01-06T04:31:31.125Z,99.75
2019-01-06T04:34:36.910Z,99.82
2019-01-06T04:37:27.640Z,99.61
2019-01-06T04:40:14.249Z,99.48
2019-01-06T04:43:06.012Z,99.15
2019-01-06T04:45:52.364Z,99.00
2019-01-06T04:48:33.914Z,98.95
2019-01-06T04:51:25.535Z,99.00
2019-01-06T04:54:09.478Z,98.74
2019-01-06T04:57:00.096Z,98.51
2019-01-06T04:59:59.790Z,98.33
2019-01-06T05:02:46.111Z,98.13
2019-01-06T05:05:32.863Z,97.52
2019-01-06T05:08:18.375Z,97.56
2019-01-06T05:11:04.769Z,97.68
2019-01-06T05:13:42.260Z,97.57
2019-01-06T05:16:28.698Z,97.33
2019-01-06T05:19:20.177Z,97.07
2019-01-06T05:22:06.360Z,96.95
2019-01-06T05:25:09.429Z,97.04
2019-01-06T05:28:00.151Z,97.33
2019-01-06T05:30:46.583Z,97.54
2019-01-06T05:33:37.383Z,97.46
2019-01-06T05:36:40.381Z,97.34
2019-01-06T05:39:27.134Z,97.39
2019-01-06T05:42:17.747Z,97.65
2019-01-06T05:45:12.679Z,97.87
2019-01-06T05:48:03.195Z,97.87
2019-01-06T05:50:51.095Z,97.98
2019-01-06T05:53:51.124Z,98.13
2019-01-06T05:56:26.880Z,97.99
2019-01-06T05:59:20.417Z,97.91
2019-01-06T06:02:05.113Z,97.78
2019-01-06T06:04:48.210Z,97.64
2019-01-06T06:07:34.475Z,97.61
2019-01-06T06:10:20.876Z,97.58
2019-01-06T06:13:11.657Z,97.38
2019-01-06T06:15:59.552Z,96.75
2019-01-06T06:18:47.595Z,96.47
2019-01-06T06:21:28.375Z,96.56
2019-01-06T06:24:28.158Z,96.34
2019-01-06T06:27:24.901Z,96.33
2019-01-06T06:30:11.540Z,96.16
2019-01-06T06:33:08.323Z,96.42
2019-01-06T06:36:01.798Z,96.79
2019-01-06T06:38:41.931Z,97.16
2019-01-06T06:41:18.366Z,97.84
2019-01-06T06:44:06.196Z,98.01
2019-01-06T06:46:52.281Z,98.16
2019-01-06T06:49:36.863Z,98.28
2019-01-06T06:52:27.416Z,98.45
2019-01-06T06:55:27.160Z,98.07
2019-01-06T06:58:37.238Z,97.99
2019-01-06T07:02:10.436Z,98.05
2019-01-06T07:04:56.799Z,98.07
2019-01-06T07:07:43.019Z,97.85
2019-01-06T07:10:33.508Z,98.06
2019-01-06T07:13:20.522Z,97.64
2019-01-06T07:16:17.181Z,97.33
2019-01-06T07:19:13.502Z,97.02
2019-01-06T07:21:59.758Z,96.30
2019-01-06T07:24:46.339Z,96.04
2019-01-06T07:27:28.489Z,95.65
2019-01-06T07:30:09.370Z,95.31
2019-01-06T07:32:56.708Z,95.16
2019-01-06T07:35:43.128Z,94.62
2019-01-06T07:38:42.978Z,94.29
2019-01-06T07:41:30.874Z,94.13
2019-01-06T07:44:19.044Z,94.13
2019-01-06T07:47:07.555Z,93.58
2019-01-06T07:50:01.134Z,93.32
2019-01-06T07:52:47.333Z,93.09
2019-01-06T07:55:33.702Z,92.68
2019-01-06T07:58:24.165Z,92.07
2019-01-06T08:01:09.599Z,92.08
2019-01-06T08:04:12.289Z,91.50
2019-01-06T08:06:58.792Z,89.92
2019-01-06T08:09:45.055Z,89.75
2019-01-06T08:12:31.352Z,89.63
2019-01-06T08:15:18.224Z,89.51
2019-01-06T08:18:08.703Z,89.73
2019-01-06T08:20:53.231Z,89.93
2019-01-06T08:23:40.026Z,89.16
2019-01-06T08:26:31.175Z,87.03
2019-01-06T08:29:28.261Z,86.39
2019-01-06T08:32:14.779Z,84.39
2019-01-06T08:35:14.516Z,82.41
2019-01-06T08:38:07.891Z,81.63
2019-01-06T08:41:00.524Z,79.30
2019-01-06T08:43:47.760Z,78.01
2019-01-06T08:46:46.940Z,75.71
2019-01-06T08:49:33.200Z,77.61
2019-01-06T08:52:12.991Z,75.81
2019-01-06T08:54:59.211Z,75.32
2019-01-06T08:57:45.576Z,75.33
2019-01-06T09:00:45.605Z,74.54
2019-01-06T09:03:36.262Z,73.72
2019-01-06T09:06:30.255Z,75.80
2019-01-06T09:09:19.470Z,76.48
2019-01-06T09:12:10.866Z,76.40
2019-01-06T09:15:16.801Z,76.98
2019-01-06T09:18:14.228Z,76.51
2019-01-06T09:21:15.544Z,75.52
2019-01-06T09:24:05.733Z,75.33
2019-01-06T09:26:56.500Z,75.72
2019-01-06T09:29:42.871Z,73.93
2019-01-06T09:32:39.905Z,74.00
2019-01-06T09:35:40.057Z,73.32
2019-01-06T09:38:32.236Z,71.93
2019-01-06T09:41:31.558Z,70.13
2019-01-06T09:44:25.270Z,69.67
2019-01-06T09:47:11.650Z,70.45
2019-01-06T09:49:58.070Z,67.47
2019-01-06T09:52:43.206Z,69.49
2019-01-06T09:55:30.008Z,69.75
2019-01-06T09:58:32.070Z,66.99
2019-01-06T10:01:22.661Z,67.27
2019-01-06T10:04:17.556Z,66.89
2019-01-06T10:07:23.249Z,65.09
2019-01-06T10:10:10.081Z,62.77
2019-01-06T10:12:56.297Z,63.54
2019-01-06T10:15:44.103Z,64.14
2019-01-06T10:18:30.429Z,63.71
2019-01-06T10:21:13.079Z,63.03
2019-01-06T10:24:00.922Z,64.80
2019-01-06T10:26:56.718Z,65.79
2019-01-06T10:29:43.212Z,66.29
2019-01-06T10:32:37.344Z,66.65
2019-01-06T10:35:23.949Z,66.99
2019-01-06T10:38:28.554Z,67.78
2019-01-06T10:41:15.317Z,68.76
2019-01-06T10:44:03.174Z,70.04
2019-01-06T10:46:54.307Z,69.35
2019-01-06T10:49:40.474Z,69.90
2019-01-06T10:52:31.509Z,69.48
2019-01-06T10:55:22.467Z,68.92
2019-01-06T10:58:09.393Z,70.24
2019-01-06T11:01:06.606Z,69.90
2019-01-06T11:04:03.519Z,71.09
2019-01-06T11:06:47.894Z,69.18
2019-01-06T11:09:36.137Z,69.67
2019-01-06T11:12:22.572Z,69.24
2019-01-06T11:15:08.727Z,68.51
2019-01-06T11:18:03.128Z,68.08
2019-01-06T11:20:51.204Z,69.42
2019-01-06T11:23:37.491Z,69.36
2019-01-06T11:26:23.749Z,68.08
2019-01-06T11:29:10.047Z,67.07
2019-01-06T11:32:10.273Z,67.59
2019-01-06T11:35:06.713Z,66.00
2019-01-06T11:37:53.097Z,64.18
2019-01-06T11:40:39.368Z,60.82
2019-01-06T11:43:29.784Z,59.15
2019-01-06T11:46:14.669Z,59.99
2019-01-06T11:49:01.238Z,58.71
2019-01-06T11:51:58.929Z,59.09
2019-01-06T11:54:43.593Z,61.14
2019-01-06T11:57:29.796Z,61.53
2019-01-06T12:00:20.402Z,62.31
2019-01-06T12:03:10.801Z,62.57
2019-01-06T12:06:04.374Z,64.09
2019-01-06T12:09:04.535Z,64.66
2019-01-06T12:12:10.701Z,66.27
2019-01-06T12:14:58.713Z,67.27
2019-01-06T12:17:55.830Z,67.79
2019-01-06T12:20:52.890Z,67.07
2019-01-06T12:23:55.656Z,67.35
2019-01-06T12:26:42.232Z,64.24
2019-01-06T12:29:33.103Z,61.56
2019-01-06T12:32:21.076Z,61.52
2019-01-06T12:35:11.471Z,60.09
2019-01-06T12:38:03.832Z,58.73
2019-01-06T12:40:50.357Z,57.08
2019-01-06T12:43:36.586Z,56.57
2019-01-06T12:46:27.698Z,55.19
2019-01-06T12:49:14.085Z,56.83
2019-01-06T12:52:05.909Z,56.63
2019-01-06T12:54:52.585Z,57.34
2019-01-06T12:57:55.772Z,60.16
2019-01-06T13:00:57.947Z,60.20
2019-01-06T13:03:44.228Z,61.11
2019-01-06T13:06:30.997Z,60.75
2019-01-06T13:09:18.889Z,61.83
2019-01-06T13:12:02.268Z,61.01
2019-01-06T13:14:48.971Z,60.67
2019-01-06T13:17:36.873Z,61.28
2019-01-06T13:20:24.869Z,61.91
2019-01-06T13:23:13.002Z,62.89
2019-01-06T13:26:12.697Z,63.08
2019-01-06T13:29:01.813Z,64.52
2019-01-06T13:31:55.663Z,64.29
2019-01-06T13:34:39.004Z,64.27
2019-01-06T13:37:25.475Z,63.52
2019-01-06T13:40:26.885Z,63.92
2019-01-06T13:43:17.908Z,64.54
2019-01-06T13:46:04.822Z,65.47
2019-01-06T13:48:59.206Z,64.56
2019-01-06T13:51:42.010Z,64.85
2019-01-06T13:54:38.614Z,66.34
2019-01-06T13:57:24.852Z,65.72
2019-01-06T14:00:12.937Z,65.98
2019-01-06T14:02:54.181Z,66.21
2019-01-06T14:05:40.950Z,66.66
2019-01-06T14:08:35.287Z,67.34
2019-01-06T14:11:20.748Z,67.66
2019-01-06T14:14:14.819Z,67.70
2019-01-06T14:17:14.466Z,68.33
2019-01-06T14:20:07.963Z,68.30
2019-01-06T14:22:54.334Z,67.90
2019-01-06T14:25:42.254Z,67.91
2019-01-06T14:28:28.626Z,67.89
2019-01-06T14:31:19.103Z,68.33
2019-01-06T14:34:05.394Z,68.99
2019-01-06T14:36:57.571Z,69.33
2019-01-06T14:39:39.669Z,69.11
2019-01-06T14:42:36.257Z,69.15
2019-01-06T14:45:24.471Z,69.54
2019-01-06T14:48:14.827Z,69.72
2019-01-06T14:51:09.943Z,69.87
2019-01-06T14:54:12.709Z,69.85
2019-01-06T14:57:00.609Z,70.25
2019-01-06T14:59:48.552Z,70.31
2019-01-06T15:02:36.513Z,70.74
2019-01-06T15:05:27.242Z,70.46
2019-01-06T15:08:13.692Z,70.66
2019-01-06T15:11:16.958Z,70.35
2019-01-06T15:14:03.282Z,71.17
2019-01-06T15:17:02.719Z,70.97
2019-01-06T15:19:58.985Z,71.49
2019-01-06T15:22:43.038Z,72.11
2019-01-06T15:25:28.717Z,71.85
2019-01-06T15:28:15.069Z,71.96
2019-01-06T15:31:01.783Z,72.60
2019-01-06T15:33:52.587Z,72.60
2019-01-06T15:36:40.519Z,73.51
2019-01-06T15:39:37.237Z,73.94
2019-01-06T15:42:34.398Z,74.02
2019-01-06T15:45:21.129Z,74.04
2019-01-06T15:48:06.670Z,74.26
2019-01-06T15:50:53.040Z,74.61
2019-01-06T15:53:54.667Z,74.55
2019-01-06T15:56:48.698Z,74.40
2019-01-06T15:59:36.516Z,74.30
2019-01-06T16:02:42.806Z,74.21
2019-01-06T16:05:31.321Z,74.53
2019-01-06T16:08:24.925Z,75.45
2019-01-06T16:11:11.100Z,76.00
2019-01-06T16:14:13.715Z,75.76
2019-01-06T16:16:51.788Z,76.02
2019-01-06T16:19:58.134Z,76.37
2019-01-06T16:22:42.407Z,77.22
2019-01-06T16:25:30.378Z,77.74
2019-01-06T16:28:27.244Z,77.93
2019-01-06T16:31:30.242Z,77.17
2019-01-06T16:34:18.295Z,77.74
2019-01-06T16:37:21.010Z,78.85
2019-01-06T16:40:11.110Z,78.85
2019-01-06T16:42:59.097Z,78.36
2019-01-06T16:45:52.647Z,78.08
2019-01-06T16:48:49.345Z,78.01
2019-01-06T16:51:49.757Z,77.74
2019-01-06T16:54:49.638Z,78.35
2019-01-06T16:57:43.152Z,78.23
2019-01-06T17:00:28.316Z,78.56
2019-01-06T17:03:14.975Z,79.33
2019-01-06T17:05:57.639Z,79.42
2019-01-06T17:09:03.999Z,79.87
2019-01-06T17:12:00.454Z,79.58
2019-01-06T17:14:46.779Z,78.59
2019-01-06T17:17:26.988Z,78.89
2019-01-06T17:20:05.837Z,79.21
2019-01-06T17:22:59.101Z,79.67
2019-01-06T17:25:45.481Z,79.63
2019-01-06T17:28:31.721Z,79.59
2019-01-06T17:31:17.951Z,79.63
2019-01-06T17:34:14.124Z,79.96
2019-01-06T17:37:04.615Z,79.94
2019-01-06T17:39:43.431Z,79.82
2019-01-06T17:42:49.534Z,79.71
2019-01-06T17:45:55.436Z,79.29
2019-01-06T17:48:46.316Z,79.59
2019-01-06T17:51:34.828Z,79.90
2019-01-06T17:54:25.242Z,80.29
2019-01-06T17:57:13.148Z,80.28
2019-01-06T18:00:02.434Z,80.75
2019-01-06T18:02:48.771Z,80.99
2019-01-06T18:05:54.905Z,81.02
2019-01-06T18:08:41.591Z,81.46
2019-01-06T18:11:28.075Z,81.82
2019-01-06T18:14:15.804Z,82.04
2019-01-06T18:17:03.625Z,82.49
2019-01-06T18:19:49.990Z,82.63
2019-01-06T18:22:36.270Z,83.38
2019-01-06T18:25:19.892Z,83.47
2019-01-06T18:28:11.297Z,83.67
2019-01-06T18:30:58.074Z,83.95
2019-01-06T18:33:44.259Z,83.93
2019-01-06T18:36:32.855Z,83.73
2019-01-06T18:39:23.782Z,84.31
2019-01-06T18:42:17.374Z,84.72
2019-01-06T18:45:08.929Z,85.05
2019-01-06T18:47:51.935Z,84.56
2019-01-06T18:50:42.446Z,84.64
2019-01-06T18:53:36.269Z,84.80
2019-01-06T18:56:38.959Z,84.78
2019-01-06T18:59:25.343Z,84.34
2019-01-06T19:02:11.620Z,84.40
2019-01-06T19:05:02.338Z,84.73
2019-01-06T19:07:52.773Z,85.21
2019-01-06T19:10:52.212Z,85.02
2019-01-06T19:13:38.594Z,84.97
2019-01-06T19:16:24.777Z,85.87
2019-01-06T19:19:27.216Z,85.86
2019-01-06T19:22:25.776Z,86.05
2019-01-06T19:25:11.996Z,86.09
2019-01-06T19:27:58.720Z,86.19
2019-01-06T19:30:53.570Z,86.31
2019-01-06T19:33:37.951Z,86.79
2019-01-06T19:36:24.567Z,87.44
2019-01-06T19:39:27.422Z,87.66
2019-01-06T19:42:13.718Z,87.55
2019-01-06T19:45:07.149Z,88.19
2019-01-06T19:47:53.357Z,88.73
2019-01-06T19:50:47.032Z,89.48
2019-01-06T19:53:30.108Z,90.15
2019-01-06T19:56:16.628Z,90.15
2019-01-06T19:59:19.828Z,90.37
2019-01-06T20:02:04.972Z,90.72
2019-01-06T20:05:02.175Z,91.22
2019-01-06T20:07:49.435Z,91.46
2019-01-06T20:10:32.376Z,92.20
2019-01-06T20:13:18.647Z,92.81
2019-01-06T20:16:17.684Z,92.95
2019-01-06T20:19:13.909Z,92.86
2019-01-06T20:22:17.093Z,92.81
2019-01-06T20:25:12.711Z,92.79
2019-01-06T20:28:08.001Z,92.31
2019-01-06T20:31:14.803Z,91.43
2019-01-06T20:34:15.504Z,91.28
2019-01-06T20:37:00.312Z,91.90
2019-01-06T20:39:46.936Z,92.02
2019-01-06T20:42:33.619Z,92.10
2019-01-06T20:45:22.468Z,92.05
2019-01-06T20:48:19.422Z,91.91
2019-01-06T20:51:07.388Z,91.73
2019-01-06T20:54:04.487Z,91.58
2019-01-06T20:57:07.931Z,91.16
2019-01-06T20:59:59.469Z,91.01
2019-01-06T21:02:55.863Z,91.02
2019-01-06T21:05:46.826Z,90.77
2019-01-06T21:08:40.356Z,90.44
2019-01-06T21:11:28.308Z,90.17
2019-01-06T21:14:18.877Z,89.99
2019-01-06T21:17:05.533Z,89.98
2019-01-06T21:19:57.272Z,89.77
2019-01-06T21:22:45.295Z,89.23
2019-01-06T21:25:30.100Z,89.14
2019-01-06T21:28:16.497Z,89.09
2019-01-06T21:31:03.225Z,89.25
2019-01-06T21:33:50.028Z,89.53
2019-01-06T21:36:28.707Z,90.18
2019-01-06T21:39:15.413Z,90.61
2019-01-06T21:41:59.528Z,90.71
2019-01-06T21:44:51.549Z,90.02
2019-01-06T21:47:38.218Z,90.67
2019-01-06T21:50:26.417Z,91.54
2019-01-06T21:53:13.397Z,91.74
2019-01-06T21:56:06.932Z,91.26
2019-01-06T21:59:09.663Z,91.31
2019-01-06T22:02:02.659Z,91.11
2019-01-06T22:04:50.702Z,91.76
2019-01-06T22:07:36.851Z,92.73
2019-01-06T22:10:23.852Z,92.36
2019-01-06T22:13:03.934Z,92.82
2019-01-06T22:16:10.222Z,93.37
2019-01-06T22:18:57.067Z,93.52
2019-01-06T22:21:50.871Z,93.52
2019-01-06T22:24:41.758Z,93.36
2019-01-06T22:27:32.288Z,93.50
2019-01-06T22:30:22.442Z,93.53
2019-01-06T22:33:09.001Z,93.44
2019-01-06T22:35:59.889Z,93.10
2019-01-06T22:38:42.383Z,93.06
2019-01-06T22:41:40.555Z,92.63
2019-01-06T22:44:27.512Z,92.76
2019-01-06T22:47:17.932Z,92.77
2019-01-06T22:50:00.541Z,92.48
2019-01-06T22:52:46.736Z,92.32
2019-01-06T22:55:43.324Z,92.27
2019-01-06T22:58:29.460Z,92.73
2019-01-06T23:01:32.249Z,92.79
2019-01-06T23:04:11.171Z,92.82
2019-01-06T23:07:11.049Z,92.89
2019-01-06T23:09:57.298Z,93.24
2019-01-06T23:12:43.375Z,93.26
2019-01-06T23:15:37.253Z,92.99
2019-01-06T23:18:34.290Z,92.92
2019-01-06T23:21:20.583Z,93.04
2019-01-06T23:24:08.635Z,92.95
2019-01-06T23:26:54.960Z,93.08
2019-01-06T23:29:46.183Z,92.65
2019-01-06T23:32:46.164Z,92.44
2019-01-06T23:35:49.482Z,92.76
2019-01-06T23:38:36.785Z,92.81
2019-01-06T23:41:27.281Z,92.66
2019-01-06T23:44:15.158Z,92.52
2019-01-06T23:47:01.570Z,92.48
2019-01-06T23:49:43.759Z,92.12
2019-01-06T23:52:27.223Z,91.90
2019-01-06T23:55:13.528Z,91.83
2019-01-06T23:58:02.866Z,91.66
